createdAt,value
2023-06-23T06:20:26.811Z,16.67
2023-06-23T06:23:03.015Z,19.52
2023-06-23T06:25:39.147Z,23.85
2023-06-23T06:28:12.163Z,12.93
2023-06-23T06:30:41.863Z,17.63
2023-06-23T06:33:10.627Z,11.20
2023-06-23T06:35:39.092Z,13.55
2023-06-23T06:38:07.120Z,13.50
2023-06-23T06:40:35.414Z,21.77
2023-06-23T06:43:02.235Z,11.30
2023-06-23T06:45:29.896Z,14.77
2023-06-23T06:47:59.926Z,16.58
2023-06-23T06:50:28.265Z,14.55
2023-06-23T06:52:56.074Z,12.30
2023-06-23T06:55:23.270Z,18.75
2023-06-23T06:57:50.359Z,14.93
2023-06-23T07:00:22.603Z,21.30
2023-06-23T07:02:49.928Z,22.05
2023-06-23T07:05:19.761Z,18.27
2023-06-23T07:07:47.056Z,21.27
2023-06-23T07:10:13.922Z,23.08
2023-06-23T07:12:40.783Z,22.95
2023-06-23T07:15:10.863Z,15.82
2023-06-23T07:17:40.127Z,17.58
2023-06-23T07:20:08.192Z,16.38
2023-06-23T07:22:35.073Z,15.75
2023-06-23T07:25:02.440Z,16.30
2023-06-23T07:27:29.419Z,14.82
2023-06-23T07:29:56.601Z,13.63
2023-06-23T07:32:24.410Z,15.30
2023-06-23T07:34:51.346Z,17.05
2023-06-23T07:37:18.136Z,14.55
2023-06-23T07:39:44.975Z,16.45
2023-06-23T07:42:11.813Z,16.38
2023-06-23T07:44:39.035Z,13.45
2023-06-23T07:47:06.695Z,13.77
2023-06-23T07:49:33.751Z,14.57
2023-06-23T07:52:05.891Z,16.17
2023-06-23T07:54:33.076Z,10.55
2023-06-23T07:57:00.907Z,12.30
2023-06-23T07:59:27.935Z,15.02
2023-06-23T08:01:55.464Z,10.80
2023-06-23T08:04:23.928Z,11.75
2023-06-23T08:06:51.119Z,11.93
2023-06-23T08:09:18.135Z,10.32
2023-06-23T08:11:45.278Z,9.70
2023-06-23T08:14:12.871Z,9.25
2023-06-23T08:19:46.972Z,11.02
2023-06-23T08:22:15.251Z,10.98
2023-06-23T08:24:42.212Z,10.38
2023-06-23T08:27:09.325Z,11.15
2023-06-23T08:29:38.462Z,15.55
2023-06-23T08:32:06.025Z,10.18
2023-06-23T08:34:32.889Z,13.57
2023-06-23T08:36:59.671Z,10.68
2023-06-23T08:39:26.519Z,12.18
2023-06-23T08:41:55.532Z,12.55
2023-06-23T08:44:25.503Z,9.13
2023-06-23T08:47:23.920Z,10.00
2023-06-23T08:49:51.834Z,9.20
2023-06-23T08:52:21.401Z,11.35
2023-06-23T08:57:51.272Z,15.68
2023-06-23T09:00:23.114Z,7.65
2023-06-23T09:02:50.004Z,8.30
2023-06-23T09:05:17.350Z,10.45
2023-06-23T09:07:47.498Z,8.13
2023-06-23T09:10:14.420Z,11.85
2023-06-23T09:13:09.364Z,9.60
2023-06-23T09:15:51.272Z,7.28
2023-06-23T09:18:24.994Z,8.00
2023-06-23T09:20:53.941Z,7.43
2023-06-23T09:23:24.509Z,6.70
2023-06-23T09:25:57.341Z,7.82
2023-06-23T09:28:30.666Z,9.15
2023-06-23T09:31:00.637Z,7.10
2023-06-23T09:33:28.004Z,14.20
2023-06-23T09:35:56.875Z,9.75
2023-06-23T09:38:26.047Z,9.70
2023-06-23T09:41:14.068Z,12.05
2023-06-23T09:43:41.594Z,11.80
2023-06-23T09:46:12.240Z,8.25
2023-06-23T09:48:40.753Z,12.23
2023-06-23T09:51:08.028Z,14.00
2023-06-23T09:53:38.998Z,9.45
2023-06-23T09:56:07.483Z,10.80
2023-06-23T09:58:41.986Z,10.48
2023-06-23T10:01:11.925Z,10.68
2023-06-23T10:03:54.019Z,9.05
2023-06-23T10:06:29.824Z,9.73
2023-06-23T10:08:58.624Z,9.07
2023-06-23T10:11:33.647Z,8.57
2023-06-23T10:14:06.972Z,9.45
2023-06-23T10:16:36.036Z,9.63
2023-06-23T10:19:03.870Z,12.35
2023-06-23T10:21:31.862Z,8.85
2023-06-23T10:24:07.372Z,15.05
2023-06-23T10:26:37.567Z,7.63
2023-06-23T10:29:12.794Z,8.65
2023-06-23T10:31:42.011Z,8.27
2023-06-23T10:34:17.105Z,7.75
2023-06-23T10:36:47.181Z,11.35
2023-06-23T10:39:15.995Z,8.13
2023-06-23T10:41:45.868Z,11.52
2023-06-23T10:44:13.352Z,13.68
2023-06-23T10:46:40.661Z,9.32
2023-06-23T10:49:09.243Z,10.30
2023-06-23T10:51:37.685Z,7.57
2023-06-23T10:54:06.615Z,7.70
2023-06-23T10:56:37.485Z,9.18
2023-06-23T10:59:21.624Z,7.80
2023-06-23T11:02:01.101Z,7.43
2023-06-23T11:04:33.287Z,9.73
2023-06-23T11:09:46.471Z,8.32
2023-06-23T11:12:38.209Z,11.20
2023-06-23T11:15:22.140Z,8.35
2023-06-23T11:18:07.706Z,7.47
2023-06-23T11:20:37.163Z,6.68
2023-06-23T11:23:11.975Z,8.93
2023-06-23T11:25:40.430Z,11.48
2023-06-23T11:28:26.980Z,9.18
2023-06-23T11:31:07.940Z,7.20
2023-06-23T11:33:54.986Z,5.53
2023-06-23T11:36:26.031Z,6.45
2023-06-23T11:38:55.050Z,6.28
2023-06-23T11:41:34.238Z,8.00
2023-06-23T11:44:04.309Z,5.55
2023-06-23T11:46:35.758Z,4.97
2023-06-23T11:49:11.501Z,8.68
2023-06-23T11:51:39.239Z,9.52
2023-06-23T11:54:08.394Z,7.43
2023-06-23T11:56:35.977Z,6.15
2023-06-23T11:59:05.663Z,6.50
2023-06-23T12:01:36.401Z,8.77
2023-06-23T12:04:07.273Z,6.45
2023-06-23T12:06:38.108Z,5.45
2023-06-23T12:09:07.174Z,9.05
2023-06-23T12:11:39.058Z,8.32
2023-06-23T12:14:07.017Z,10.50
2023-06-23T12:16:39.242Z,8.52
2023-06-23T12:19:07.493Z,9.52
2023-06-23T12:21:42.653Z,11.93
2023-06-23T12:26:44.303Z,8.25
2023-06-23T12:29:13.731Z,8.75
2023-06-23T12:31:41.454Z,12.18
2023-06-23T12:34:11.898Z,10.23
2023-06-23T12:36:41.477Z,12.02
2023-06-23T12:39:13.953Z,8.82
2023-06-23T12:41:42.228Z,18.25
2023-06-23T12:44:13.574Z,8.95
2023-06-23T12:46:42.587Z,9.90
2023-06-23T12:49:11.953Z,11.48
2023-06-23T12:51:40.269Z,13.00
2023-06-23T12:54:07.738Z,10.43
2023-06-23T12:56:37.324Z,7.93
2023-06-23T12:59:04.949Z,17.17
2023-06-23T13:01:33.908Z,21.52
2023-06-23T13:04:01.839Z,9.05
2023-06-23T13:06:30.441Z,7.15
2023-06-23T13:08:57.935Z,9.98
2023-06-23T13:11:25.463Z,7.70
2023-06-23T13:13:53.967Z,8.25
2023-06-23T13:16:29.938Z,8.15
2023-06-23T13:18:58.023Z,5.22
2023-06-23T13:21:26.927Z,6.85
2023-06-23T13:23:55.549Z,10.27
2023-06-23T13:26:26.430Z,9.02
2023-06-23T13:28:55.168Z,7.00
2023-06-23T13:31:22.561Z,10.23
2023-06-23T13:33:50.288Z,7.90
2023-06-23T13:36:17.859Z,7.45
2023-06-23T13:38:49.355Z,14.25
2023-06-23T13:41:16.790Z,6.65
2023-06-23T13:43:44.202Z,7.45
2023-06-23T13:46:12.711Z,8.68
2023-06-23T13:48:41.868Z,9.25
2023-06-23T13:51:16.587Z,8.45
2023-06-23T13:53:44.039Z,10.90
2023-06-23T13:56:11.462Z,6.43
2023-06-23T13:58:38.882Z,6.95
2023-06-23T14:01:06.361Z,19.70
2023-06-23T14:03:33.881Z,7.78
2023-06-23T14:06:05.271Z,10.63
2023-06-23T14:08:35.541Z,8.18
2023-06-23T14:11:03.856Z,10.77
2023-06-23T14:13:31.855Z,5.95
2023-06-23T14:16:00.208Z,10.07
2023-06-23T14:18:28.788Z,6.55
2023-06-23T14:20:56.224Z,4.60
2023-06-23T14:23:24.743Z,7.30
2023-06-23T14:25:52.096Z,9.38
2023-06-23T14:28:21.779Z,6.25
2023-06-23T14:30:49.355Z,7.50
2023-06-23T14:33:17.504Z,5.90
2023-06-23T14:35:44.990Z,7.68
2023-06-23T14:38:14.637Z,9.63
2023-06-23T14:40:42.252Z,5.82
2023-06-23T14:43:09.618Z,5.82
2023-06-23T14:45:38.892Z,5.22
2023-06-23T14:48:09.341Z,11.32
2023-06-23T14:50:38.431Z,7.65
2023-06-23T14:53:05.855Z,6.43
2023-06-23T14:55:34.950Z,7.60
2023-06-23T14:58:04.542Z,10.82
2023-06-23T15:00:32.817Z,10.63
2023-06-23T15:03:01.772Z,11.98
2023-06-23T15:05:32.789Z,9.98
2023-06-23T15:08:00.442Z,8.32
2023-06-23T15:10:28.180Z,6.63
2023-06-23T15:12:55.965Z,6.78
2023-06-23T15:15:30.980Z,11.38
2023-06-23T15:20:28.343Z,7.35
2023-06-23T15:22:57.361Z,7.90
2023-06-23T15:25:27.559Z,6.88
2023-06-23T15:27:55.339Z,6.50
2023-06-23T15:30:25.613Z,7.63
2023-06-23T15:32:55.168Z,10.20
2023-06-23T15:35:23.092Z,8.93
2023-06-23T15:37:52.276Z,5.38
2023-06-23T15:40:19.687Z,5.95
2023-06-23T15:42:47.102Z,6.28
2023-06-23T15:45:14.684Z,6.13
2023-06-23T15:47:42.330Z,4.72
2023-06-23T15:50:10.440Z,7.55
2023-06-23T15:52:38.394Z,6.63
2023-06-23T15:55:08.831Z,4.15
2023-06-23T15:57:36.393Z,7.22
2023-06-23T16:00:06.229Z,4.38
2023-06-23T16:02:34.348Z,5.78
2023-06-23T16:05:02.195Z,4.85
2023-06-23T16:07:30.726Z,8.05
2023-06-23T16:09:59.079Z,7.25
2023-06-23T16:12:32.009Z,3.97
2023-06-23T16:15:00.437Z,4.80
2023-06-23T16:17:28.610Z,7.13
2023-06-23T16:19:56.327Z,3.60
2023-06-23T16:22:23.878Z,4.00
2023-06-23T16:24:52.587Z,7.40
2023-06-23T16:27:20.597Z,3.65
2023-06-23T16:29:51.267Z,4.20
2023-06-23T16:32:20.456Z,3.75
2023-06-23T16:34:48.041Z,4.22
2023-06-23T16:37:17.928Z,4.60
2023-06-23T16:39:45.339Z,7.75
2023-06-23T16:42:13.822Z,5.75
2023-06-23T16:44:44.631Z,3.53
2023-06-23T16:47:12.301Z,8.20
2023-06-23T16:49:40.204Z,4.88
2023-06-23T16:52:11.088Z,10.13
2023-06-23T16:54:44.415Z,8.45
2023-06-23T16:57:14.203Z,9.25
2023-06-23T16:59:42.949Z,3.28
2023-06-23T17:02:11.866Z,3.65
2023-06-23T17:04:41.924Z,4.40
2023-06-23T17:07:11.053Z,3.60
2023-06-23T17:09:40.032Z,5.05
2023-06-23T17:12:18.356Z,3.78
2023-06-23T17:14:48.063Z,5.93
2023-06-23T17:17:16.090Z,5.68
2023-06-23T17:19:44.769Z,5.18
2023-06-23T17:22:15.805Z,4.93
2023-06-23T17:24:46.937Z,7.10
2023-06-23T17:27:15.137Z,6.28
2023-06-23T17:29:44.246Z,6.35
2023-06-23T17:32:12.326Z,5.05
2023-06-23T17:34:41.270Z,5.32
2023-06-23T17:37:09.487Z,6.88
2023-06-23T17:39:37.870Z,4.28
2023-06-23T17:42:11.207Z,7.65
2023-06-23T17:44:40.006Z,5.68
2023-06-23T17:47:07.734Z,9.48
2023-06-23T17:49:39.468Z,9.02
2023-06-23T17:52:11.947Z,6.18
2023-06-23T17:54:44.478Z,5.63
2023-06-23T17:57:14.438Z,8.50
2023-06-23T17:59:41.930Z,4.60
2023-06-23T18:02:09.633Z,6.85
2023-06-23T18:04:41.259Z,9.13
2023-06-23T18:07:09.886Z,5.45
2023-06-23T18:09:39.296Z,5.03
2023-06-23T18:12:10.795Z,4.63
2023-06-23T18:14:38.666Z,4.78
2023-06-23T18:17:06.642Z,11.00
2023-06-23T18:19:35.062Z,3.60
2023-06-23T18:22:06.831Z,6.20
2023-06-23T18:24:49.343Z,5.53
2023-06-23T18:27:18.125Z,5.50
2023-06-23T18:29:52.660Z,6.32
2023-06-23T18:32:46.623Z,7.38
2023-06-23T18:35:17.625Z,8.13
2023-06-23T18:37:45.710Z,5.70
2023-06-23T18:40:22.724Z,4.82
2023-06-23T18:42:50.622Z,6.35
2023-06-23T18:45:20.571Z,5.32
2023-06-23T18:47:50.021Z,13.80
2023-06-23T18:50:18.487Z,8.38
2023-06-23T18:52:55.160Z,6.63
2023-06-23T18:55:23.355Z,6.35
2023-06-23T18:57:51.693Z,6.28
2023-06-23T19:00:19.298Z,7.40
2023-06-23T19:02:46.223Z,6.60
2023-06-23T19:05:13.486Z,10.20
2023-06-23T19:07:40.370Z,4.78
2023-06-23T19:10:07.718Z,7.57
2023-06-23T19:12:34.602Z,6.68
2023-06-23T19:15:01.625Z,12.70
2023-06-23T19:17:28.550Z,9.27
2023-06-23T19:19:55.426Z,8.20
2023-06-23T19:22:22.354Z,7.05
2023-06-23T19:24:49.276Z,6.97
2023-06-23T19:27:16.054Z,8.70
2023-06-23T19:29:42.885Z,12.20
2023-06-23T19:32:09.924Z,7.55
2023-06-23T19:34:37.139Z,8.35
2023-06-23T19:37:04.651Z,8.00
2023-06-23T19:39:31.520Z,5.90
2023-06-23T19:41:58.460Z,6.28
2023-06-23T19:44:26.254Z,10.23
2023-06-23T19:46:53.237Z,8.05
2023-06-23T19:49:21.173Z,9.48
2023-06-23T19:51:51.721Z,7.53
2023-06-23T19:54:22.431Z,8.88
2023-06-23T19:56:51.474Z,8.73
2023-06-23T19:59:18.890Z,7.95
2023-06-23T20:01:45.809Z,9.02
2023-06-23T20:04:13.498Z,7.28
2023-06-23T20:06:40.392Z,10.02
2023-06-23T20:09:07.289Z,10.55
2023-06-23T20:11:34.172Z,8.45
2023-06-23T20:14:02.714Z,8.77
2023-06-23T20:16:29.613Z,10.70
2023-06-23T20:18:56.478Z,12.60
2023-06-23T20:21:23.291Z,9.00
2023-06-23T20:23:50.150Z,9.70
2023-06-23T20:26:17.032Z,13.32
2023-06-23T20:28:44.172Z,13.75
2023-06-23T20:31:11.018Z,14.48
2023-06-23T20:33:37.833Z,15.05
2023-06-23T20:36:04.963Z,10.90
2023-06-23T20:38:31.883Z,13.65
2023-06-23T20:40:58.639Z,10.85
2023-06-23T20:43:26.611Z,11.02
2023-06-23T20:45:53.421Z,12.40
2023-06-23T20:48:21.058Z,14.35
2023-06-23T20:50:48.615Z,13.57
2023-06-23T20:53:15.474Z,14.13
2023-06-23T20:55:42.327Z,15.27
2023-06-23T20:58:09.393Z,17.00
2023-06-23T21:00:40.592Z,14.35
2023-06-23T21:03:07.683Z,11.77
2023-06-23T21:05:34.629Z,11.90
2023-06-23T21:08:01.522Z,8.43
2023-06-23T21:10:29.310Z,16.20
2023-06-23T21:12:56.684Z,12.07
2023-06-23T21:15:26.243Z,14.02
2023-06-23T21:17:56.308Z,21.33
2023-06-23T21:20:24.975Z,17.55
2023-06-23T21:22:53.381Z,18.95
2023-06-23T21:25:21.746Z,9.85
2023-06-23T21:27:49.532Z,11.07
2023-06-23T21:30:17.569Z,13.63
2023-06-23T21:32:45.472Z,12.23
2023-06-23T21:35:15.605Z,16.58
2023-06-23T21:37:46.863Z,11.15
2023-06-23T21:40:23.200Z,12.23
2023-06-23T21:42:50.340Z,10.93
2023-06-23T21:45:17.256Z,12.60
2023-06-23T21:47:45.076Z,11.60
2023-06-23T21:50:14.204Z,17.50
2023-06-23T21:52:41.064Z,14.27
2023-06-23T21:55:08.654Z,14.30
2023-06-23T21:57:35.530Z,12.90
2023-06-23T22:00:03.169Z,15.05
2023-06-23T22:02:30.369Z,12.27
2023-06-23T22:04:57.571Z,17.48
2023-06-23T22:07:24.603Z,19.23
2023-06-23T22:09:51.489Z,16.65
2023-06-23T22:12:18.302Z,12.63
2023-06-23T22:18:35.760Z,12.20
2023-06-23T22:21:06.126Z,13.40
2023-06-23T22:23:33.324Z,13.32
2023-06-23T22:26:00.134Z,14.13
2023-06-23T22:28:27.087Z,12.05
2023-06-23T22:30:58.438Z,16.73
2023-06-23T22:33:25.310Z,14.98
2023-06-23T22:35:52.577Z,16.55
2023-06-23T22:38:19.739Z,13.70
2023-06-23T22:40:46.969Z,18.67
2023-06-23T22:43:14.167Z,28.38
2023-06-23T22:45:41.060Z,16.70
2023-06-23T22:48:08.245Z,12.02
2023-06-23T22:50:35.905Z,14.45
2023-06-23T22:53:04.621Z,14.05
2023-06-23T22:55:34.657Z,17.50
2023-06-23T22:58:02.169Z,14.10
2023-06-23T23:00:34.107Z,18.17
2023-06-23T23:03:01.905Z,12.82
2023-06-23T23:05:29.529Z,17.38
2023-06-23T23:07:56.807Z,15.15
2023-06-23T23:10:23.816Z,16.65
2023-06-23T23:12:54.692Z,15.45
2023-06-23T23:15:22.536Z,14.25
2023-06-23T23:17:53.188Z,13.10
2023-06-23T23:20:20.110Z,18.10
2023-06-23T23:22:47.514Z,15.48
2023-06-23T23:25:22.644Z,15.10
2023-06-23T23:27:52.407Z,14.77
2023-06-23T23:30:23.491Z,15.30
2023-06-23T23:32:55.705Z,12.88
2023-06-23T23:35:22.996Z,18.52
2023-06-23T23:37:50.327Z,21.60
2023-06-23T23:40:17.190Z,18.95
2023-06-23T23:42:45.254Z,23.23
2023-06-23T23:45:13.372Z,14.77
2023-06-23T23:47:47.810Z,18.88
2023-06-23T23:50:15.486Z,15.32
2023-06-23T23:52:42.812Z,15.95
2023-06-23T23:55:10.238Z,14.77
2023-06-23T23:57:37.559Z,17.30
